createdAt,value
2023-08-06T00:00:27.065Z,2.43
2023-08-06T00:02:53.813Z,2.60
2023-08-06T00:05:22.056Z,2.57
2023-08-06T00:07:49.236Z,2.27
2023-08-06T00:10:15.612Z,2.57
2023-08-06T00:12:42.177Z,3.00
2023-08-06T00:15:09.293Z,2.17
2023-08-06T00:17:38.763Z,2.43
2023-08-06T00:20:07.252Z,2.70
2023-08-06T00:22:34.087Z,2.80
2023-08-06T00:25:00.595Z,2.83
2023-08-06T00:27:27.280Z,2.57
2023-08-06T00:29:53.809Z,2.70
2023-08-06T00:32:20.381Z,2.60
2023-08-06T00:34:46.759Z,2.23
2023-08-06T00:37:13.107Z,2.40
2023-08-06T00:39:39.460Z,2.50
2023-08-06T00:42:05.895Z,2.40
2023-08-06T00:44:32.280Z,2.90
2023-08-06T00:46:59.403Z,2.90
2023-08-06T00:49:25.818Z,2.47
2023-08-06T00:51:52.805Z,2.73
2023-08-06T00:54:19.352Z,2.57
2023-08-06T00:56:46.370Z,2.70
2023-08-06T00:59:13.128Z,2.87
2023-08-06T01:01:39.529Z,3.10
2023-08-06T01:04:05.916Z,2.53
2023-08-06T01:06:45.608Z,3.20
2023-08-06T01:09:46.366Z,2.30
2023-08-06T01:12:57.252Z,2.97
2023-08-06T01:15:32.529Z,2.90
2023-08-06T01:17:59.511Z,2.70
2023-08-06T01:20:32.416Z,2.47
2023-08-06T01:22:58.818Z,2.80
2023-08-06T01:25:32.164Z,2.90
2023-08-06T01:28:04.284Z,3.20
2023-08-06T01:30:36.918Z,2.70
2023-08-06T01:33:06.944Z,2.80
2023-08-06T01:35:33.920Z,2.90
2023-08-06T01:38:03.672Z,2.73
2023-08-06T01:40:30.736Z,3.20
2023-08-06T01:42:57.135Z,3.30
2023-08-06T01:45:23.520Z,3.00
2023-08-06T01:47:49.918Z,3.03
2023-08-06T01:50:16.326Z,2.87
2023-08-06T01:52:42.694Z,2.77
2023-08-06T01:55:09.143Z,2.83
2023-08-06T01:57:35.492Z,2.70
2023-08-06T02:00:01.893Z,2.47
2023-08-06T02:02:28.351Z,2.70
2023-08-06T02:04:54.732Z,2.80
2023-08-06T02:07:21.093Z,2.87
2023-08-06T02:09:47.444Z,2.80
2023-08-06T02:12:13.806Z,2.80
2023-08-06T02:14:40.161Z,2.80
2023-08-06T02:17:06.687Z,2.83
2023-08-06T02:19:33.023Z,2.60
2023-08-06T02:21:59.407Z,2.80
2023-08-06T02:24:25.772Z,3.27
2023-08-06T02:26:52.546Z,2.60
2023-08-06T02:29:19.165Z,2.73
2023-08-06T02:31:45.634Z,2.77
2023-08-06T02:34:12.095Z,3.00
2023-08-06T02:36:38.472Z,2.70
2023-08-06T02:39:04.824Z,2.97
2023-08-06T02:41:31.160Z,2.97
2023-08-06T02:43:57.516Z,2.70
2023-08-06T02:46:23.954Z,2.50
2023-08-06T02:48:50.301Z,2.73
2023-08-06T02:51:16.648Z,2.87
2023-08-06T02:53:43.026Z,3.03
2023-08-06T02:56:09.379Z,2.87
2023-08-06T02:58:35.734Z,2.87
2023-08-06T03:01:06.732Z,2.90
2023-08-06T03:03:33.473Z,2.87
2023-08-06T03:06:00.031Z,2.90
2023-08-06T03:08:26.974Z,2.80
2023-08-06T03:10:53.383Z,2.63
2023-08-06T03:13:19.948Z,3.23
2023-08-06T03:15:55.008Z,2.90
2023-08-06T03:18:22.232Z,3.23
2023-08-06T03:20:48.877Z,2.97
2023-08-06T03:23:15.318Z,3.00
2023-08-06T03:25:41.683Z,3.13
2023-08-06T03:28:08.037Z,3.43
2023-08-06T03:30:34.474Z,2.97
2023-08-06T03:33:00.860Z,3.13
2023-08-06T03:35:27.280Z,2.97
2023-08-06T03:37:53.666Z,3.10
2023-08-06T03:40:20.123Z,3.23
2023-08-06T03:42:46.471Z,3.20
2023-08-06T03:45:12.822Z,3.23
2023-08-06T03:47:39.210Z,3.13
2023-08-06T03:50:05.910Z,3.20
2023-08-06T03:52:32.250Z,3.50
2023-08-06T03:54:58.667Z,3.67
2023-08-06T03:57:25.018Z,2.90
2023-08-06T03:59:55.257Z,3.07
2023-08-06T04:02:22.054Z,3.13
2023-08-06T04:04:48.544Z,3.37
2023-08-06T04:07:14.890Z,3.33
2023-08-06T04:09:59.344Z,3.67
2023-08-06T04:12:26.089Z,3.30
2023-08-06T04:14:55.946Z,3.93
2023-08-06T04:17:22.956Z,3.53
2023-08-06T04:19:51.534Z,3.47
2023-08-06T04:22:18.213Z,3.70
2023-08-06T04:24:44.811Z,3.33
2023-08-06T04:27:12.088Z,3.50
2023-08-06T04:29:38.852Z,3.63
2023-08-06T04:32:08.887Z,3.93
2023-08-06T04:34:36.241Z,3.80
2023-08-06T04:37:03.765Z,4.00
2023-08-06T04:39:30.414Z,4.13
2023-08-06T04:41:58.562Z,3.20
2023-08-06T04:44:24.934Z,4.03
2023-08-06T04:46:51.623Z,3.83
2023-08-06T04:49:18.919Z,3.87
2023-08-06T04:51:45.317Z,4.20
2023-08-06T04:54:11.652Z,3.90
2023-08-06T04:56:38.103Z,3.87
2023-08-06T04:59:04.481Z,4.50
2023-08-06T05:01:31.008Z,3.77
2023-08-06T05:03:57.455Z,3.67
2023-08-06T05:06:23.850Z,3.67
2023-08-06T05:08:50.199Z,3.30
2023-08-06T05:11:16.671Z,3.63
2023-08-06T05:13:43.049Z,3.67
2023-08-06T05:16:09.560Z,4.20
2023-08-06T05:18:35.959Z,4.70
2023-08-06T05:21:02.381Z,3.63
2023-08-06T05:23:28.724Z,3.80
2023-08-06T05:25:55.065Z,3.87
2023-08-06T05:28:21.478Z,3.97
2023-08-06T05:30:47.871Z,4.23
2023-08-06T05:33:14.302Z,4.40
2023-08-06T05:35:42.114Z,4.53
2023-08-06T05:38:08.537Z,4.30
2023-08-06T05:40:35.528Z,4.20
2023-08-06T05:43:02.017Z,4.37
2023-08-06T05:45:28.392Z,4.00
2023-08-06T05:47:58.875Z,4.20
2023-08-06T05:50:25.851Z,4.10
2023-08-06T05:52:52.868Z,4.57
2023-08-06T05:55:20.779Z,4.30
2023-08-06T05:57:47.196Z,4.20
2023-08-06T06:00:13.596Z,4.10
2023-08-06T06:02:39.992Z,4.17
2023-08-06T06:05:06.543Z,4.50
2023-08-06T06:07:32.907Z,4.53
2023-08-06T06:09:59.496Z,4.00
2023-08-06T06:12:27.235Z,4.60
2023-08-06T06:14:53.620Z,4.57
2023-08-06T06:17:20.104Z,4.50
2023-08-06T06:19:46.615Z,3.97
2023-08-06T06:22:12.995Z,4.33
2023-08-06T06:24:39.440Z,4.77
2023-08-06T06:27:06.109Z,4.53
2023-08-06T06:29:32.465Z,4.40
2023-08-06T06:31:58.903Z,4.97
2023-08-06T06:34:25.247Z,4.73
2023-08-06T06:36:51.600Z,4.50
2023-08-06T06:39:18.735Z,4.77
2023-08-06T06:41:45.340Z,4.30
2023-08-06T06:44:11.950Z,5.60
2023-08-06T06:46:38.356Z,5.27
2023-08-06T06:49:04.786Z,5.10
2023-08-06T06:51:32.935Z,4.90
2023-08-06T06:53:59.590Z,4.80
2023-08-06T06:56:25.957Z,4.77
2023-08-06T06:58:52.298Z,5.30
2023-08-06T07:01:18.918Z,5.00
2023-08-06T07:03:45.475Z,5.23
2023-08-06T07:06:13.345Z,5.03
2023-08-06T07:08:39.870Z,4.70
2023-08-06T07:11:07.642Z,5.37
2023-08-06T07:13:35.286Z,5.00
2023-08-06T07:16:01.852Z,5.03
2023-08-06T07:18:28.259Z,5.47
2023-08-06T07:20:55.460Z,5.23
2023-08-06T07:23:22.807Z,5.40
2023-08-06T07:25:49.413Z,5.77
2023-08-06T07:28:16.528Z,5.43
2023-08-06T07:30:43.786Z,5.67
2023-08-06T07:33:10.363Z,5.50
2023-08-06T07:35:37.267Z,5.43
2023-08-06T07:38:03.866Z,4.80
2023-08-06T07:40:30.310Z,4.90
2023-08-06T07:42:56.647Z,4.37
2023-08-06T07:45:23.043Z,4.77
2023-08-06T07:47:49.523Z,4.73
2023-08-06T07:50:16.173Z,4.43
2023-08-06T07:52:42.556Z,4.40
2023-08-06T07:55:09.136Z,4.40
2023-08-06T07:57:35.512Z,4.43
2023-08-06T08:00:02.380Z,4.07
2023-08-06T08:02:28.888Z,4.23
2023-08-06T08:04:55.361Z,4.30
2023-08-06T08:07:21.850Z,4.30
2023-08-06T08:09:49.619Z,4.00
2023-08-06T08:12:16.037Z,4.43
2023-08-06T08:14:42.730Z,4.03
2023-08-06T08:17:09.068Z,4.30
2023-08-06T08:19:35.440Z,4.20
2023-08-06T08:22:01.951Z,4.80
2023-08-06T08:24:28.433Z,4.73
2023-08-06T08:26:54.789Z,5.53
2023-08-06T08:29:22.301Z,5.07
2023-08-06T08:31:51.089Z,4.50
2023-08-06T08:34:18.250Z,4.70
2023-08-06T08:36:44.974Z,3.87
2023-08-06T08:39:11.327Z,4.00
2023-08-06T08:41:38.926Z,4.00
2023-08-06T08:44:06.356Z,4.10
2023-08-06T08:46:35.217Z,3.90
2023-08-06T08:49:03.279Z,3.33
2023-08-06T08:51:30.157Z,4.00
2023-08-06T08:53:58.337Z,3.53
2023-08-06T08:56:25.220Z,3.50
2023-08-06T08:58:54.217Z,3.60
2023-08-06T09:01:22.747Z,3.87
2023-08-06T09:03:49.339Z,4.07
2023-08-06T09:06:16.602Z,3.90
2023-08-06T09:08:50.410Z,3.43
2023-08-06T09:11:17.329Z,3.47
2023-08-06T09:13:43.747Z,3.47
2023-08-06T09:16:10.272Z,3.80
2023-08-06T09:18:40.008Z,3.63
2023-08-06T09:21:06.415Z,3.63
2023-08-06T09:23:34.292Z,3.67
2023-08-06T09:26:01.002Z,3.83
2023-08-06T09:28:40.480Z,3.60
2023-08-06T09:31:06.889Z,4.27
2023-08-06T09:33:33.335Z,3.73
2023-08-06T09:36:09.743Z,4.17
2023-08-06T09:38:40.259Z,3.57
2023-08-06T09:41:06.875Z,3.77
2023-08-06T09:43:43.782Z,3.50
2023-08-06T09:46:15.269Z,3.23
2023-08-06T09:48:42.923Z,3.90
2023-08-06T09:51:10.340Z,2.90
2023-08-06T09:53:38.199Z,3.03
2023-08-06T09:56:04.829Z,3.17
2023-08-06T09:58:33.165Z,2.80
2023-08-06T10:01:01.547Z,2.83
2023-08-06T10:03:29.034Z,2.73
2023-08-06T10:05:56.772Z,2.67
2023-08-06T10:08:24.023Z,3.00
2023-08-06T10:10:51.771Z,2.73
2023-08-06T10:13:20.556Z,2.60
2023-08-06T10:15:47.504Z,2.43
2023-08-06T10:18:15.257Z,2.77
2023-08-06T10:20:41.646Z,2.60
2023-08-06T10:23:09.782Z,3.00
2023-08-06T10:25:37.085Z,3.20
2023-08-06T10:28:16.094Z,2.50
2023-08-06T10:30:44.457Z,2.70
2023-08-06T10:33:10.864Z,2.60
2023-08-06T10:35:39.036Z,2.53
2023-08-06T10:38:26.357Z,2.50
2023-08-06T10:40:55.722Z,2.73
2023-08-06T10:43:40.766Z,2.63
2023-08-06T10:46:11.759Z,2.43
2023-08-06T10:48:38.812Z,2.60
2023-08-06T10:51:12.224Z,2.33
2023-08-06T10:53:39.691Z,2.43
2023-08-06T10:56:20.238Z,2.23
2023-08-06T10:58:47.550Z,2.10
2023-08-06T11:01:14.285Z,2.40
2023-08-06T11:03:41.359Z,2.30
2023-08-06T11:06:08.636Z,2.30
2023-08-06T11:08:36.770Z,2.20
2023-08-06T11:11:14.140Z,2.00
2023-08-06T11:13:41.804Z,2.10
2023-08-06T11:16:08.964Z,2.23
2023-08-06T11:18:35.370Z,2.10
2023-08-06T11:21:02.120Z,2.00
2023-08-06T11:23:32.471Z,2.10
2023-08-06T11:25:59.081Z,2.10
2023-08-06T11:28:25.778Z,2.00
2023-08-06T11:30:52.689Z,1.83
2023-08-06T11:33:23.670Z,1.97
2023-08-06T11:35:50.467Z,2.20
2023-08-06T11:38:17.630Z,1.97
2023-08-06T11:40:48.419Z,2.20
2023-08-06T11:43:15.317Z,2.07
2023-08-06T11:45:41.890Z,1.97
2023-08-06T11:48:11.926Z,2.07
2023-08-06T11:50:39.886Z,1.90
2023-08-06T11:53:06.714Z,2.20
2023-08-06T11:55:33.746Z,1.90
2023-08-06T11:58:04.314Z,2.10
2023-08-06T12:00:30.717Z,2.30
2023-08-06T12:02:57.178Z,1.87
2023-08-06T12:05:25.214Z,2.10
2023-08-06T12:07:53.271Z,2.00
2023-08-06T12:10:23.163Z,1.90
2023-08-06T12:12:49.639Z,2.00
2023-08-06T12:15:16.013Z,2.07
2023-08-06T12:17:42.801Z,2.00
2023-08-06T12:20:10.180Z,2.23
2023-08-06T12:22:38.438Z,1.90
2023-08-06T12:25:09.457Z,2.10
2023-08-06T12:27:37.073Z,1.90
2023-08-06T12:30:04.771Z,1.60
2023-08-06T12:32:31.366Z,1.90
2023-08-06T12:34:57.737Z,1.87
2023-08-06T12:37:26.051Z,1.90
2023-08-06T12:39:52.555Z,1.97
2023-08-06T12:42:18.902Z,1.77
2023-08-06T12:44:45.347Z,1.90
2023-08-06T12:47:11.761Z,1.67
2023-08-06T12:49:38.151Z,1.70
2023-08-06T12:52:07.480Z,1.87
2023-08-06T12:54:40.070Z,1.80
2023-08-06T12:57:06.703Z,1.93
2023-08-06T12:59:37.849Z,1.90
2023-08-06T13:02:05.018Z,1.90
2023-08-06T13:04:32.085Z,1.80
2023-08-06T13:06:58.595Z,1.97
2023-08-06T13:09:25.817Z,2.17
2023-08-06T13:11:52.545Z,2.10
2023-08-06T13:14:19.171Z,1.70
2023-08-06T13:16:46.020Z,1.83
2023-08-06T13:19:14.282Z,2.00
2023-08-06T13:21:46.950Z,2.10
2023-08-06T13:24:13.306Z,2.37
2023-08-06T13:26:39.833Z,1.87
2023-08-06T13:29:08.313Z,1.93
2023-08-06T13:31:34.755Z,2.00
2023-08-06T13:34:01.259Z,1.97
2023-08-06T13:36:28.168Z,1.60
2023-08-06T13:38:54.861Z,1.83
2023-08-06T13:41:21.496Z,2.13
2023-08-06T13:43:47.932Z,2.00
2023-08-06T13:46:19.171Z,1.63
2023-08-06T13:48:47.320Z,2.10
2023-08-06T13:51:14.344Z,2.20
2023-08-06T13:53:41.221Z,1.80
2023-08-06T13:56:08.255Z,2.00
2023-08-06T13:58:34.716Z,1.60
2023-08-06T14:01:01.086Z,1.80
2023-08-06T14:03:27.888Z,1.90
2023-08-06T14:05:57.385Z,2.60
2023-08-06T14:08:24.657Z,1.80
2023-08-06T14:10:52.002Z,2.20
2023-08-06T14:13:18.941Z,1.60
2023-08-06T14:15:47.933Z,2.00
2023-08-06T14:18:15.273Z,1.80
2023-08-06T14:20:42.349Z,1.90
2023-08-06T14:23:09.045Z,1.57
2023-08-06T14:25:35.630Z,2.13
2023-08-06T14:28:02.057Z,1.87
2023-08-06T14:30:28.410Z,1.70
2023-08-06T14:32:54.794Z,2.00
2023-08-06T14:35:21.153Z,1.77
2023-08-06T14:37:47.547Z,1.80
2023-08-06T14:40:13.980Z,1.83
2023-08-06T14:42:40.765Z,1.80
2023-08-06T14:45:07.547Z,2.10
2023-08-06T14:47:33.923Z,1.93
2023-08-06T14:50:00.508Z,2.00
2023-08-06T14:52:27.260Z,1.83
2023-08-06T14:54:56.441Z,1.87
2023-08-06T14:57:28.553Z,2.10
2023-08-06T14:59:55.389Z,2.07
2023-08-06T15:02:22.019Z,1.50
2023-08-06T15:04:48.828Z,2.10
2023-08-06T15:07:15.267Z,1.70
2023-08-06T15:10:04.083Z,1.83
2023-08-06T15:12:27.920Z,1.83
2023-08-06T15:14:57.727Z,1.63
2023-08-06T15:17:24.335Z,1.73
2023-08-06T15:19:50.795Z,1.90
2023-08-06T15:22:17.153Z,1.83
2023-08-06T15:24:43.524Z,1.80
2023-08-06T15:27:10.313Z,1.80
2023-08-06T15:29:36.885Z,1.97
2023-08-06T15:32:03.814Z,1.73
2023-08-06T15:34:30.269Z,2.00
2023-08-06T15:36:56.671Z,1.90
2023-08-06T15:39:23.067Z,2.07
2023-08-06T15:41:49.477Z,1.87
2023-08-06T15:44:15.863Z,1.97
2023-08-06T15:46:42.269Z,2.20
2023-08-06T15:49:08.661Z,2.17
2023-08-06T15:51:35.202Z,2.20
2023-08-06T15:54:01.592Z,2.10
2023-08-06T15:56:28.011Z,2.10
2023-08-06T15:58:55.338Z,2.37
2023-08-06T16:01:21.846Z,2.10
2023-08-06T16:03:48.248Z,2.20
2023-08-06T16:06:14.698Z,1.80
2023-08-06T16:08:41.121Z,2.20
2023-08-06T16:11:08.415Z,2.20
2023-08-06T16:13:34.768Z,1.80
2023-08-06T16:16:01.138Z,1.93
2023-08-06T16:18:27.540Z,1.57
2023-08-06T16:20:54.743Z,1.80
2023-08-06T16:23:21.101Z,1.90
2023-08-06T16:25:48.571Z,2.07
2023-08-06T16:28:14.932Z,2.07
2023-08-06T16:30:47.949Z,2.00
2023-08-06T16:33:14.322Z,2.23
2023-08-06T16:35:41.567Z,2.10
2023-08-06T16:38:08.122Z,2.00
2023-08-06T16:40:34.616Z,1.93
2023-08-06T16:43:00.995Z,2.10
2023-08-06T16:45:27.365Z,2.00
2023-08-06T16:47:53.789Z,2.00
2023-08-06T16:50:20.991Z,1.83
2023-08-06T16:52:47.393Z,2.10
2023-08-06T16:55:15.589Z,2.03
2023-08-06T16:57:41.938Z,2.20
2023-08-06T17:00:08.615Z,2.10
2023-08-06T17:02:35.159Z,2.20
2023-08-06T17:05:01.558Z,2.27
2023-08-06T17:07:27.974Z,2.03
2023-08-06T17:09:54.349Z,2.20
2023-08-06T17:12:22.014Z,2.00
2023-08-06T17:14:48.415Z,2.10
2023-08-06T17:17:15.123Z,1.83
2023-08-06T17:19:44.364Z,1.80
2023-08-06T17:22:11.172Z,1.90
2023-08-06T17:24:38.382Z,2.10
2023-08-06T17:27:04.851Z,2.17
2023-08-06T17:29:31.227Z,1.70
2023-08-06T17:31:57.654Z,2.20
2023-08-06T17:34:24.158Z,2.03
2023-08-06T17:36:50.517Z,2.10
2023-08-06T17:39:16.846Z,1.70
2023-08-06T17:41:44.634Z,2.00
2023-08-06T17:44:13.159Z,2.23
2023-08-06T17:46:39.554Z,1.70
2023-08-06T17:49:06.049Z,1.97
2023-08-06T17:51:32.500Z,2.00
2023-08-06T17:53:58.841Z,1.97
2023-08-06T17:56:25.402Z,1.93
2023-08-06T17:58:51.859Z,1.97
2023-08-06T18:01:18.242Z,2.00
2023-08-06T18:03:46.896Z,2.03
2023-08-06T18:06:13.634Z,2.00
2023-08-06T18:08:40.014Z,2.50
2023-08-06T18:11:06.355Z,2.30
2023-08-06T18:13:32.681Z,1.97
2023-08-06T18:15:59.051Z,2.00
2023-08-06T18:18:26.309Z,1.80
2023-08-06T18:20:52.672Z,2.00
2023-08-06T18:23:19.219Z,2.10
2023-08-06T18:25:45.676Z,2.10
2023-08-06T18:28:12.099Z,1.70
2023-08-06T18:30:40.639Z,2.20
2023-08-06T18:33:07.675Z,2.00
2023-08-06T18:35:34.152Z,2.20
2023-08-06T18:38:00.978Z,2.30
2023-08-06T18:40:29.512Z,2.10
2023-08-06T18:42:55.892Z,1.70
2023-08-06T18:45:22.240Z,2.20
2023-08-06T18:47:48.599Z,2.10
2023-08-06T18:50:15.088Z,2.10
2023-08-06T18:52:41.476Z,2.50
2023-08-06T18:55:08.178Z,1.90
2023-08-06T18:57:34.594Z,1.70
2023-08-06T19:00:01.085Z,1.90
2023-08-06T19:02:28.390Z,1.90
2023-08-06T19:04:55.806Z,2.20
2023-08-06T19:07:22.321Z,2.10
2023-08-06T19:09:49.173Z,2.17
2023-08-06T19:12:16.382Z,1.83
2023-08-06T19:14:43.071Z,2.00
2023-08-06T19:17:09.761Z,2.00
2023-08-06T19:19:36.212Z,1.77
2023-08-06T19:22:02.559Z,2.17
2023-08-06T19:24:28.992Z,2.10
2023-08-06T19:26:55.411Z,1.97
2023-08-06T19:29:21.758Z,2.10
2023-08-06T19:32:05.266Z,1.87
2023-08-06T19:34:33.093Z,2.10
2023-08-06T19:37:00.200Z,2.10
2023-08-06T19:39:27.026Z,1.97
2023-08-06T19:41:54.232Z,2.00
2023-08-06T19:44:21.165Z,2.07
2023-08-06T19:46:47.937Z,2.13
2023-08-06T19:49:14.843Z,2.50
2023-08-06T19:51:41.454Z,2.10
2023-08-06T19:54:08.380Z,2.23
2023-08-06T19:56:35.410Z,2.00
2023-08-06T19:59:02.444Z,2.20
2023-08-06T20:01:29.262Z,2.20
2023-08-06T20:03:55.764Z,2.10
2023-08-06T20:06:28.196Z,2.00
2023-08-06T20:08:58.753Z,2.20
2023-08-06T20:11:25.820Z,2.20
2023-08-06T20:13:52.235Z,2.30
2023-08-06T20:16:19.057Z,2.17
2023-08-06T20:18:45.889Z,2.30
2023-08-06T20:21:12.322Z,2.30
2023-08-06T20:23:38.820Z,1.90
2023-08-06T20:26:05.207Z,2.30
2023-08-06T20:28:32.208Z,2.80
2023-08-06T20:30:58.948Z,2.60
2023-08-06T20:33:25.338Z,2.40
2023-08-06T20:35:51.956Z,2.27
2023-08-06T20:38:19.950Z,2.10
2023-08-06T20:40:46.811Z,2.37
2023-08-06T20:43:13.369Z,2.07
2023-08-06T20:45:41.157Z,2.30
2023-08-06T20:48:08.322Z,2.17
2023-08-06T20:50:34.895Z,2.40
2023-08-06T20:53:01.248Z,2.43
2023-08-06T20:55:27.917Z,2.30
2023-08-06T20:57:54.447Z,1.97
2023-08-06T21:00:21.125Z,2.30
2023-08-06T21:02:47.728Z,2.30
2023-08-06T21:05:14.449Z,2.47
2023-08-06T21:07:41.023Z,2.10
2023-08-06T21:10:07.744Z,2.50
2023-08-06T21:12:34.255Z,2.13
2023-08-06T21:15:00.694Z,2.30
2023-08-06T21:17:27.196Z,2.33
2023-08-06T21:19:53.660Z,2.53
2023-08-06T21:22:20.034Z,2.70
2023-08-06T21:24:46.425Z,2.30
2023-08-06T21:27:12.920Z,2.77
2023-08-06T21:29:40.677Z,2.30
2023-08-06T21:32:07.960Z,2.50
2023-08-06T21:34:34.350Z,2.43
2023-08-06T21:37:00.695Z,2.60
2023-08-06T21:39:27.839Z,2.33
2023-08-06T21:41:54.422Z,2.73
2023-08-06T21:44:20.949Z,2.43
2023-08-06T21:46:47.306Z,2.33
2023-08-06T21:49:14.175Z,2.60
2023-08-06T21:51:41.113Z,2.90
2023-08-06T21:54:07.534Z,2.97
2023-08-06T21:56:34.148Z,2.77
2023-08-06T21:59:00.880Z,2.87
2023-08-06T22:01:30.954Z,2.87
2023-08-06T22:03:58.252Z,2.87
2023-08-06T22:06:24.793Z,2.53
2023-08-06T22:08:54.229Z,2.87
2023-08-06T22:11:20.572Z,3.13
2023-08-06T22:13:47.098Z,2.93
2023-08-06T22:16:13.475Z,2.93
2023-08-06T22:18:39.871Z,3.00
2023-08-06T22:21:06.440Z,3.07
2023-08-06T22:23:33.008Z,3.00
2023-08-06T22:25:59.438Z,3.37
2023-08-06T22:28:26.130Z,3.20
2023-08-06T22:30:53.104Z,3.00
2023-08-06T22:33:20.062Z,3.03
2023-08-06T22:35:46.983Z,3.10
2023-08-06T22:38:13.555Z,3.20
2023-08-06T22:40:39.947Z,3.07
2023-08-06T22:43:06.592Z,2.80
2023-08-06T22:45:32.995Z,2.60
2023-08-06T22:47:59.416Z,3.03
2023-08-06T22:50:26.071Z,3.10
2023-08-06T22:52:52.618Z,2.63
2023-08-06T22:55:32.205Z,3.40
2023-08-06T22:58:05.292Z,3.00
2023-08-06T23:00:31.881Z,3.00
2023-08-06T23:03:09.135Z,3.03
2023-08-06T23:05:37.016Z,2.90
2023-08-06T23:08:03.471Z,3.07
2023-08-06T23:10:29.872Z,2.90
2023-08-06T23:12:56.460Z,2.60
2023-08-06T23:15:22.814Z,2.97
2023-08-06T23:17:49.252Z,2.50
2023-08-06T23:20:15.708Z,2.83
2023-08-06T23:22:42.567Z,2.47
2023-08-06T23:25:09.160Z,2.70
2023-08-06T23:27:35.523Z,2.80
2023-08-06T23:30:02.186Z,2.43
2023-08-06T23:32:29.741Z,2.50
2023-08-06T23:34:56.180Z,2.63
2023-08-06T23:37:22.557Z,2.40
2023-08-06T23:39:53.915Z,2.67
2023-08-06T23:42:20.846Z,2.70
2023-08-06T23:44:47.188Z,2.80
2023-08-06T23:47:13.608Z,2.37
2023-08-06T23:49:40.033Z,2.60
2023-08-06T23:52:06.758Z,2.50
2023-08-06T23:54:33.108Z,2.50
2023-08-06T23:56:59.475Z,2.30
2023-08-06T23:59:25.832Z,2.23
